Time;durP1;ratioP1;P1;durP2;ratioP2;P2;SDS_P1;SDS_P2;PMS_P1;PMS_P2;Temp;Humidity;BMP_temperature;BMP_pressure;BME280_temperature;BME280_humidity;BME280_pressure;Samples;Min_cycle;Max_cycle;Signal;HPM_P1;HPM_P2
2021/01/11 00:01:41;;;;;;;23.73;13.43;;;3.20;71.70;;;;;;4917376;29;20048;-74
2021/01/11 00:04:07;;;;;;;27.85;15.20;;;3.00;71.70;;;;;;4918465;29;20032;-74
2021/01/11 00:06:40;;;;;;;24.85;13.43;;;3.30;72.10;;;;;;4918436;29;20078;-75
2021/01/11 00:09:07;;;;;;;26.92;13.27;;;3.90;72.60;;;;;;4917956;29;20071;-74
2021/01/11 00:11:35;;;;;;;23.60;12.80;;;3.60;72.50;;;;;;4918516;29;20048;-75
2021/01/11 00:14:03;;;;;;;25.00;13.65;;;3.60;72.50;;;;;;4918543;29;20135;-75
2021/01/11 00:16:30;;;;;;;25.10;13.23;;;3.90;72.60;;;;;;4918250;29;20104;-75
2021/01/11 00:18:56;;;;;;;24.30;12.93;;;4.10;72.60;;;;;;4918037;29;20043;-75
2021/01/11 00:21:22;;;;;;;21.77;11.68;;;4.00;72.30;;;;;;4918029;29;20044;-75
2021/01/11 00:23:47;;;;;;;22.85;12.52;;;4.10;72.30;;;;;;4918087;29;20035;-74
2021/01/11 00:26:13;;;;;;;21.27;12.10;;;4.10;72.30;;;;;;4917607;29;20127;-75
2021/01/11 00:28:40;;;;;;;24.60;12.88;;;3.80;72.00;;;;;;4918078;29;20412;-74
2021/01/11 00:31:06;;;;;;;23.70;12.18;;;4.10;72.00;;;;;;4918383;29;20036;-75
2021/01/11 00:33:31;;;;;;;21.52;12.35;;;3.80;72.00;;;;;;4918029;29;20044;-74
2021/01/11 00:35:57;;;;;;;20.80;11.73;;;3.80;72.00;;;;;;4917468;29;20039;-74
2021/01/11 00:38:23;;;;;;;21.30;11.48;;;3.70;71.90;;;;;;4917699;29;20500;-73
2021/01/11 00:40:49;;;;;;;22.58;12.23;;;3.60;71.90;;;;;;4917902;29;20036;-73
2021/01/11 00:43:15;;;;;;;20.45;11.95;;;3.60;71.80;;;;;;4917703;29;20043;-74
2021/01/11 00:45:41;;;;;;;24.08;12.98;;;3.60;71.90;;;;;;4917692;29;20107;-73
2021/01/11 00:48:07;;;;;;;22.88;11.95;;;3.60;71.90;;;;;;4917917;29;20071;-74
2021/01/11 00:50:33;;;;;;;22.60;12.18;;;3.80;72.10;;;;;;4917614;29;20032;-74
2021/01/11 00:52:59;;;;;;;24.33;12.57;;;3.60;72.00;;;;;;4917850;29;20499;-74
2021/01/11 00:55:24;;;;;;;24.52;13.30;;;3.50;72.00;;;;;;4917397;29;20032;-74
2021/01/11 00:57:50;;;;;;;21.25;12.45;;;3.50;72.20;;;;;;4917662;29;20047;-73
2021/01/11 01:00:17;;;;;;;34.55;19.67;;;3.60;72.20;;;;;;4917891;29;20559;-74
2021/01/11 01:02:43;;;;;;;27.52;16.45;;;3.40;71.80;;;;;;4917612;29;20040;-74
2021/01/11 01:05:11;;;;;;;32.53;18.58;;;3.40;71.70;;;;;;4917308;29;20147;-75
2021/01/11 01:07:41;;;;;;;31.13;18.13;;;3.10;71.60;;;;;;4917820;29;20068;-74
2021/01/11 01:10:08;;;;;;;32.30;17.95;;;3.10;71.40;;;;;;4917110;29;20047;-74
2021/01/11 01:12:34;;;;;;;25.88;14.45;;;2.90;71.40;;;;;;4918797;29;20115;-74
2021/01/11 01:15:00;;;;;;;23.13;12.43;;;3.30;71.80;;;;;;4921378;29;20142;-74
2021/01/11 01:17:26;;;;;;;21.15;12.68;;;3.40;72.00;;;;;;4921322;29;20504;-74
2021/01/11 01:19:51;;;;;;;35.97;18.88;;;3.30;71.90;;;;;;4921460;29;20044;-74
2021/01/11 01:22:17;;;;;;;36.92;19.98;;;3.30;71.70;;;;;;4921382;29;20472;-74
2021/01/11 01:24:43;;;;;;;35.67;18.83;;;3.20;71.70;;;;;;4921458;29;20048;-75
2021/01/11 01:27:09;;;;;;;29.10;17.10;;;2.80;71.50;;;;;;4921434;29;20071;-75
2021/01/11 01:29:35;;;;;;;32.97;19.60;;;2.90;71.40;;;;;;4921124;29;20040;-74
2021/01/11 01:32:00;;;;;;;32.08;19.00;;;2.80;71.90;;;;;;4921555;29;20422;-75
2021/01/11 01:34:26;;;;;;;34.67;17.77;;;2.70;71.30;;;;;;4921524;29;20100;-74
2021/01/11 01:36:52;;;;;;;31.15;17.08;;;3.00;71.50;;;;;;4920839;29;20103;-75
2021/01/11 01:39:21;;;;;;;29.05;17.13;;;3.00;71.60;;;;;;4921328;29;20091;-75
2021/01/11 01:41:47;;;;;;;29.98;16.70;;;2.50;71.30;;;;;;4921467;29;20122;-74
2021/01/11 01:44:12;;;;;;;28.67;15.27;;;2.60;71.50;;;;;;4921284;29;20135;-75
2021/01/11 01:46:38;;;;;;;28.42;15.73;;;3.10;71.70;;;;;;4921201;29;20036;-75
2021/01/11 01:49:06;;;;;;;26.13;13.93;;;2.60;71.40;;;;;;4920852;29;20047;-74
2021/01/11 01:51:32;;;;;;;26.95;15.25;;;2.70;71.40;;;;;;4921093;29;20044;-74
2021/01/11 01:53:59;;;;;;;26.25;14.95;;;2.80;71.50;;;;;;4920692;29;20046;-74
2021/01/11 01:56:25;;;;;;;26.17;14.15;;;2.60;71.40;;;;;;4921074;29;20050;-74
2021/01/11 01:58:52;;;;;;;23.10;12.60;;;2.50;71.30;;;;;;4920744;29;20492;-74
2021/01/11 02:01:17;;;;;;;22.98;12.07;;;2.30;71.30;;;;;;4921323;29;20425;-74
2021/01/11 02:03:43;;;;;;;23.75;12.25;;;2.60;71.60;;;;;;4921274;29;20101;-74
2021/01/11 02:06:09;;;;;;;26.08;14.13;;;2.60;71.60;;;;;;4920523;29;20083;-75
2021/01/11 02:09:12;;;;;;;24.48;11.85;;;2.60;71.60;;;;;;4920488;29;20051;-74
2021/01/11 02:11:55;;;;;;;22.45;11.63;;;2.70;71.50;;;;;;4868162;29;20075;-74
2021/01/11 02:15:05;;;;;;;20.65;12.10;;;2.80;71.60;;;;;;4920393;29;20040;-74
2021/01/11 02:17:53;;;;;;;19.67;11.25;;;2.50;71.40;;;;;;4895313;29;20044;-74
2021/01/11 02:20:46;;;;;;;21.10;10.70;;;2.40;72.00;;;;;;4919794;29;20048;-74
2021/01/11 02:23:35;;;;;;;23.10;11.48;;;2.60;71.30;;;;;;4919687;29;20433;-74
2021/01/11 02:26:37;;;;;;;24.23;12.85;;;2.70;71.40;;;;;;4919857;29;20048;-74
2021/01/11 02:29:29;;;;;;;22.10;12.43;;;2.50;71.50;;;;;;4824670;29;20373;-74
2021/01/11 02:31:58;;;;;;;23.42;13.88;;;2.50;71.30;;;;;;4917646;29;20099;-74
2021/01/11 02:34:25;;;;;;;25.17;13.30;;;2.70;71.50;;;;;;4920137;29;20060;-74
2021/01/11 02:36:52;;;;;;;22.63;12.38;;;2.30;71.30;;;;;;4920133;29;20048;-74
2021/01/11 02:39:18;;;;;;;22.63;12.00;;;2.40;71.40;;;;;;4920065;29;20050;-74
2021/01/11 02:41:44;;;;;;;21.13;11.45;;;2.40;71.50;;;;;;4920073;29;20048;-74
2021/01/11 02:44:10;;;;;;;21.58;11.88;;;2.60;71.60;;;;;;4919594;29;20504;-74
2021/01/11 02:46:36;;;;;;;22.10;12.05;;;2.90;71.70;;;;;;4920088;29;20044;-74
2021/01/11 02:49:15;;;;;;;23.00;12.00;;;2.50;71.60;;;;;;4919703;29;20119;-74
2021/01/11 02:51:50;;;;;;;23.10;12.60;;;2.80;71.70;;;;;;4920054;29;20095;-75
2021/01/11 02:54:22;;;;;;;23.40;12.15;;;2.70;71.60;;;;;;4920032;29;20032;-74
2021/01/11 02:56:58;;;;;;;22.00;12.50;;;2.80;71.70;;;;;;4919470;29;20044;-74
2021/01/11 02:59:36;;;;;;;30.05;16.15;;;2.80;71.60;;;;;;4902891;29;20436;-75
2021/01/11 03:02:04;;;;;;;26.05;14.10;;;3.00;71.60;;;;;;4919827;29;20048;-74
2021/01/11 03:04:31;;;;;;;25.58;13.55;;;2.70;71.70;;;;;;4919508;29;20092;-75
2021/01/11 03:07:02;;;;;;;27.30;14.15;;;2.50;71.40;;;;;;4919524;29;20111;-74
2021/01/11 03:09:29;;;;;;;26.55;15.02;;;2.50;71.50;;;;;;4919779;29;20039;-75
2021/01/11 03:11:55;;;;;;;23.35;12.75;;;2.50;71.50;;;;;;4919843;29;20077;-75
2021/01/11 03:14:21;;;;;;;25.58;14.27;;;2.60;71.70;;;;;;4919741;29;20091;-75
2021/01/11 03:16:47;;;;;;;27.08;14.77;;;2.70;71.80;;;;;;4919293;29;20036;-75
2021/01/11 03:19:13;;;;;;;26.13;13.95;;;2.60;71.70;;;;;;4919840;29;20044;-75
2021/01/11 03:21:40;;;;;;;26.70;15.20;;;2.80;71.80;;;;;;4919664;29;20048;-74
2021/01/11 03:24:07;;;;;;;27.08;14.35;;;2.40;71.50;;;;;;4919809;29;20043;-74
2021/01/11 03:26:33;;;;;;;28.02;16.00;;;2.70;71.60;;;;;;4919664;29;20054;-74
2021/01/11 03:28:59;;;;;;;29.00;15.63;;;2.30;71.50;;;;;;4919538;29;20119;-74
2021/01/11 03:31:24;;;;;;;29.08;15.68;;;2.50;71.70;;;;;;4919146;29;20040;-74
2021/01/11 03:33:50;;;;;;;28.20;15.60;;;2.60;71.70;;;;;;4919601;29;20374;-75
2021/01/11 03:36:17;;;;;;;26.75;15.85;;;2.90;71.90;;;;;;4918318;29;20075;-74
2021/01/11 03:38:44;;;;;;;29.33;16.73;;;2.60;71.70;;;;;;4919059;29;20075;-75
2021/01/11 03:41:10;;;;;;;30.83;17.10;;;2.70;71.60;;;;;;4919530;29;20047;-75
2021/01/11 03:43:41;;;;;;;27.60;15.27;;;2.70;71.60;;;;;;4919225;29;20062;-74
2021/01/11 03:46:09;;;;;;;28.75;16.08;;;3.00;71.80;;;;;;4919208;29;20040;-74
2021/01/11 03:48:35;;;;;;;28.50;16.55;;;2.70;71.60;;;;;;4919073;29;20118;-75
2021/01/11 03:51:02;;;;;;;29.30;16.38;;;2.70;71.70;;;;;;4918749;29;20140;-75
2021/01/11 03:53:27;;;;;;;28.48;16.17;;;3.00;72.00;;;;;;4919019;29;20047;-74
2021/01/11 03:55:53;;;;;;;26.55;14.48;;;2.70;71.90;;;;;;4918911;29;20385;-74
2021/01/11 03:58:19;;;;;;;25.67;15.05;;;3.30;72.20;;;;;;4919034;29;20183;-74
2021/01/11 04:00:48;;;;;;;26.50;15.10;;;2.80;72.00;;;;;;4918977;29;20056;-74
2021/01/11 04:03:14;;;;;;;27.95;14.98;;;3.20;72.20;;;;;;4918788;29;20051;-74
2021/01/11 04:05:47;;;;;;;27.58;15.43;;;3.20;72.30;;;;;;4918468;29;20063;-74
2021/01/11 04:08:16;;;;;;;29.20;15.73;;;3.10;72.20;;;;;;4918653;29;20048;-74
2021/01/11 04:10:42;;;;;;;23.73;14.70;;;3.50;72.30;;;;;;4901826;29;20391;-74
2021/01/11 04:13:08;;;;;;;24.75;14.32;;;3.40;72.20;;;;;;4918216;29;20044;-74
2021/01/11 04:15:34;;;;;;;26.52;14.75;;;3.10;72.10;;;;;;4918440;29;20048;-74
2021/01/11 04:18:00;;;;;;;26.83;14.90;;;3.40;72.20;;;;;;4918293;29;20048;-74
2021/01/11 04:20:27;;;;;;;23.15;14.70;;;3.50;72.30;;;;;;4917796;29;20411;-74
2021/01/11 04:22:52;;;;;;;26.75;14.45;;;3.20;72.20;;;;;;4918007;29;20063;-74
2021/01/11 04:25:18;;;;;;;25.58;15.13;;;3.70;72.40;;;;;;4917817;29;20074;-74
2021/01/11 04:27:44;;;;;;;23.45;14.30;;;3.60;72.30;;;;;;4918030;29;20044;-74
2021/01/11 04:30:11;;;;;;;24.85;14.23;;;3.80;72.40;;;;;;4918071;29;20108;-74
2021/01/11 04:32:40;;;;;;;23.42;14.02;;;4.00;72.40;;;;;;4918318;29;20500;-74
2021/01/11 04:35:08;;;;;;;22.50;13.60;;;3.70;72.20;;;;;;4918301;29;20051;-74
2021/01/11 04:37:34;;;;;;;22.30;13.32;;;3.50;72.10;;;;;;4917667;29;20036;-74
2021/01/11 04:40:00;;;;;;;24.58;13.43;;;3.50;72.10;;;;;;4917674;29;20143;-75
2021/01/11 04:42:47;;;;;;;23.60;14.35;;;3.70;72.20;;;;;;4918080;29;20067;-74
2021/01/11 04:45:17;;;;;;;23.40;14.38;;;3.70;72.10;;;;;;4917388;29;20047;-75
2021/01/11 04:47:44;;;;;;;24.88;13.77;;;3.70;72.20;;;;;;4917495;29;20048;-74
2021/01/11 04:50:11;;;;;;;23.33;13.57;;;3.70;71.90;;;;;;4917584;29;20035;-75
2021/01/11 04:52:38;;;;;;;24.60;14.02;;;3.60;71.80;;;;;;4917480;29;20039;-75
2021/01/11 04:55:06;;;;;;;22.10;13.30;;;3.70;72.10;;;;;;4917377;29;20404;-75
2021/01/11 04:57:35;;;;;;;23.98;13.52;;;3.70;72.20;;;;;;4917440;29;20048;-75
2021/01/11 05:00:10;;;;;;;25.95;14.70;;;3.60;72.20;;;;;;4917264;29;20048;-74
2021/01/11 05:02:43;;;;;;;23.67;14.07;;;3.40;72.10;;;;;;4917490;29;20401;-74
2021/01/11 05:05:10;;;;;;;22.52;13.30;;;3.90;72.40;;;;;;4917600;29;20100;-75
2021/01/11 05:07:36;;;;;;;27.10;15.27;;;3.80;72.20;;;;;;4918045;29;20512;-74
2021/01/11 05:10:02;;;;;;;27.25;15.25;;;3.90;72.30;;;;;;4917533;29;20044;-74
2021/01/11 05:12:28;;;;;;;24.77;14.77;;;3.90;72.80;;;;;;4917742;29;20420;-74
2021/01/11 05:15:14;;;;;;;25.25;15.20;;;3.90;72.30;;;;;;4917891;29;20040;-74
2021/01/11 05:17:44;;;;;;;27.38;16.00;;;3.90;72.20;;;;;;4917360;29;20051;-74
2021/01/11 05:20:12;;;;;;;27.58;15.38;;;3.80;72.20;;;;;;4917629;29;20044;-74
2021/01/11 05:22:47;;;;;;;25.92;13.70;;;3.70;72.40;;;;;;4917822;29;20172;-74
2021/01/11 05:25:21;;;;;;;23.77;13.90;;;3.60;72.40;;;;;;4917764;29;20051;-75
2021/01/11 05:28:07;;;;;;;26.23;14.75;;;4.10;73.00;;;;;;4916334;29;20527;-74
2021/01/11 05:30:37;;;;;;;27.30;16.17;;;3.80;72.80;;;;;;4915192;29;20036;-74
2021/01/11 05:33:05;;;;;;;25.42;15.23;;;3.60;72.70;;;;;;4917917;29;20040;-74
2021/01/11 05:35:31;;;;;;;25.75;14.93;;;3.80;72.60;;;;;;4917610;29;20380;-74
2021/01/11 05:37:59;;;;;;;23.17;14.45;;;4.10;72.70;;;;;;4917820;29;20052;-74
2021/01/11 05:40:27;;;;;;;24.27;14.48;;;3.90;72.60;;;;;;4917252;29;20042;-75
2021/01/11 05:43:00;;;;;;;25.30;14.57;;;3.80;72.40;;;;;;4915696;29;20036;-75
2021/01/11 05:45:30;;;;;;;27.15;15.63;;;4.10;72.60;;;;;;4915518;29;20122;-75
2021/01/11 05:48:07;;;;;;;26.33;14.98;;;4.00;72.50;;;;;;4915493;29;20040;-75
2021/01/11 05:50:40;;;;;;;28.05;15.73;;;4.00;72.50;;;;;;4898577;29;20040;-76
2021/01/11 05:53:16;;;;;;;26.20;15.13;;;3.90;72.40;;;;;;4915639;29;20047;-75
2021/01/11 05:55:43;;;;;;;27.33;15.93;;;4.10;72.50;;;;;;4915804;29;20043;-75
2021/01/11 05:58:09;;;;;;;26.45;14.95;;;4.00;72.50;;;;;;4900473;29;20044;-75
2021/01/11 06:00:37;;;;;;;20.95;13.70;;;4.00;72.50;;;;;;4914263;29;20052;-75
2021/01/11 06:03:05;;;;;;;27.10;15.27;;;3.80;72.50;;;;;;4902003;29;20139;-75
2021/01/11 06:05:32;;;;;;;24.73;14.55;;;3.90;72.70;;;;;;4919080;29;20060;-75
2021/01/11 06:08:03;;;;;;;24.80;15.50;;;4.20;72.80;;;;;;4901594;29;20044;-75
2021/01/11 06:10:28;;;;;;;29.17;16.98;;;4.20;72.60;;;;;;4900500;29;20055;-75
2021/01/11 06:12:55;;;;;;;28.83;17.27;;;4.60;72.80;;;;;;4900721;29;20036;-75
2021/01/11 06:15:26;;;;;;;29.98;17.42;;;4.20;72.50;;;;;;4918422;29;20056;-75
2021/01/11 06:17:57;;;;;;;25.30;15.70;;;4.10;72.50;;;;;;4902923;29;20380;-75
2021/01/11 06:20:30;;;;;;;27.75;16.27;;;4.20;72.50;;;;;;4934154;29;20051;-75
2021/01/11 06:22:56;;;;;;;26.70;16.08;;;4.40;72.80;;;;;;4938412;29;20074;-75
2021/01/11 06:25:25;;;;;;;28.60;16.13;;;3.90;72.60;;;;;;4938930;29;20032;-75
2021/01/11 06:28:03;;;;;;;26.17;15.57;;;4.20;72.80;;;;;;4938807;29;20118;-75
2021/01/11 06:30:33;;;;;;;25.17;14.85;;;4.40;72.70;;;;;;4938825;29;20074;-75
2021/01/11 06:33:10;;;;;;;26.60;15.63;;;4.30;72.70;;;;;;4939139;29;20035;-75
2021/01/11 06:35:57;;;;;;;24.85;14.52;;;4.50;72.70;;;;;;4939749;29;20502;-75
2021/01/11 06:38:26;;;;;;;24.70;13.38;;;4.50;72.60;;;;;;4938884;29;20048;-75
2021/01/11 06:41:11;;;;;;;23.10;13.88;;;4.30;72.50;;;;;;4939488;29;20047;-75
2021/01/11 06:43:43;;;;;;;23.65;14.00;;;4.40;72.80;;;;;;4939497;29;20051;-74
2021/01/11 06:46:28;;;;;;;25.67;14.25;;;4.40;72.80;;;;;;4939545;29;20043;-74
2021/01/11 06:49:02;;;;;;;22.67;13.82;;;4.60;72.80;;;;;;4939020;29;20048;-73
2021/01/11 06:51:41;;;;;;;24.48;13.45;;;4.50;72.70;;;;;;4939045;29;20498;-73
2021/01/11 06:54:14;;;;;;;23.13;13.93;;;4.50;72.70;;;;;;4938988;29;20044;-74
2021/01/11 06:56:41;;;;;;;23.33;14.15;;;4.60;72.60;;;;;;4921913;29;20388;-74
2021/01/11 06:59:16;;;;;;;26.17;15.80;;;4.20;72.30;;;;;;4919642;29;20050;-74
2021/01/11 07:01:43;;;;;;;25.23;14.98;;;4.50;72.50;;;;;;4919427;29;20043;-74
2021/01/11 07:04:30;;;;;;;22.92;14.32;;;4.70;72.60;;;;;;4919363;29;20036;-74
2021/01/11 07:07:07;;;;;;;24.05;13.90;;;4.60;72.50;;;;;;4918457;29;20056;-74
2021/01/11 07:09:33;;;;;;;27.58;14.82;;;4.40;72.70;;;;;;4918646;29;20096;-73
2021/01/11 07:12:04;;;;;;;25.05;15.02;;;4.30;72.70;;;;;;4918869;29;20048;-74
2021/01/11 07:14:55;;;;;;;25.30;15.57;;;4.60;72.80;;;;;;4919221;29;20156;-73
2021/01/11 07:17:41;;;;;;;26.77;14.95;;;4.40;72.60;;;;;;4919253;29;20044;-74
2021/01/11 07:20:09;;;;;;;22.67;14.10;;;4.50;72.60;;;;;;4919412;29;20048;-72
2021/01/11 07:22:37;;;;;;;24.55;15.82;;;4.50;72.70;;;;;;4919502;29;20036;-73
2021/01/11 07:25:07;;;;;;;22.10;13.98;;;4.50;72.70;;;;;;4919013;29;20048;-74
2021/01/11 07:27:34;;;;;;;23.92;14.60;;;4.50;72.70;;;;;;4919277;29;20036;-73
2021/01/11 07:29:59;;;;;;;23.58;14.85;;;4.30;72.70;;;;;;4919179;29;20087;-73
2021/01/11 07:32:30;;;;;;;25.40;15.05;;;4.40;72.80;;;;;;4919105;29;20036;-73
2021/01/11 07:35:00;;;;;;;24.00;14.93;;;4.70;72.90;;;;;;4919389;29;20072;-73
2021/01/11 07:37:26;;;;;;;26.48;15.63;;;4.50;72.70;;;;;;4919116;29;20054;-73
2021/01/11 07:39:51;;;;;;;27.58;15.93;;;4.30;72.60;;;;;;4919185;29;20040;-73
2021/01/11 07:42:19;;;;;;;25.92;15.85;;;4.50;72.70;;;;;;4918220;29;20047;-73
2021/01/11 07:44:46;;;;;;;24.90;15.30;;;4.40;72.60;;;;;;4918932;29;20131;-73
2021/01/11 07:47:13;;;;;;;26.48;16.98;;;4.60;72.70;;;;;;4918945;29;20492;-73
2021/01/11 07:49:41;;;;;;;26.45;16.33;;;4.80;72.80;;;;;;4919027;29;20035;-73
2021/01/11 07:52:17;;;;;;;27.48;16.13;;;4.50;72.70;;;;;;4918864;29;20095;-73
2021/01/11 07:54:44;;;;;;;26.67;16.25;;;4.80;72.80;;;;;;4918770;29;20115;-73
2021/01/11 07:57:11;;;;;;;26.70;15.77;;;4.70;72.70;;;;;;4918873;29;20044;-73
2021/01/11 07:59:42;;;;;;;25.63;15.18;;;4.70;72.70;;;;;;4918777;29;20504;-73
2021/01/11 08:02:13;;;;;;;24.10;14.57;;;4.70;72.70;;;;;;4918085;29;20039;-73
2021/01/11 08:04:40;;;;;;;22.02;13.32;;;4.80;72.80;;;;;;4918051;29;20096;-73
2021/01/11 08:07:11;;;;;;;23.58;14.65;;;4.90;72.90;;;;;;4918258;29;20523;-72
2021/01/11 08:09:38;;;;;;;26.15;16.10;;;5.10;73.00;;;;;;4918261;29;20464;-73
2021/01/11 08:12:12;;;;;;;29.65;17.35;;;5.00;72.80;;;;;;4917759;29;20044;-73
2021/01/11 08:14:41;;;;;;;26.73;16.08;;;4.90;72.70;;;;;;4918440;29;20039;-73
2021/01/11 08:17:14;;;;;;;26.23;16.33;;;4.90;72.80;;;;;;4918016;29;20139;-73
2021/01/11 08:19:42;;;;;;;27.42;17.00;;;4.80;72.80;;;;;;4918238;29;20040;-73
2021/01/11 08:22:10;;;;;;;32.40;19.67;;;4.90;72.80;;;;;;4917314;29;20048;-73
2021/01/11 08:24:37;;;;;;;27.00;16.90;;;4.70;72.60;;;;;;4917843;29;20047;-73
2021/01/11 08:27:05;;;;;;;29.13;17.48;;;4.60;72.90;;;;;;4917851;29;20047;-73
2021/01/11 08:29:39;;;;;;;28.05;17.13;;;4.60;73.10;;;;;;4916519;29;20508;-73
2021/01/11 08:32:10;;;;;;;28.25;15.80;;;4.60;73.10;;;;;;4917227;29;20165;-73
2021/01/11 08:34:37;;;;;;;30.10;15.85;;;4.90;73.10;;;;;;4917571;29;20040;-73
2021/01/11 08:37:29;;;;;;;25.60;15.68;;;4.70;73.00;;;;;;4917614;29;20048;-74
2021/01/11 08:39:57;;;;;;;30.15;16.50;;;4.60;72.80;;;;;;4907423;29;20055;-74
2021/01/11 08:42:28;;;;;;;29.25;16.90;;;5.00;73.10;;;;;;4897802;29;20043;-72
2021/01/11 08:44:54;;;;;;;30.75;17.15;;;5.10;73.00;;;;;;4898679;29;20044;-73
2021/01/11 08:47:27;;;;;;;27.95;16.30;;;4.90;73.00;;;;;;4898855;29;20043;-73
2021/01/11 08:50:01;;;;;;;30.15;17.00;;;4.90;72.90;;;;;;4898352;29;20485;-73
2021/01/11 08:52:32;;;;;;;26.17;16.13;;;4.90;72.90;;;;;;4898681;29;20058;-73
2021/01/11 08:55:11;;;;;;;27.42;15.77;;;5.20;73.10;;;;;;4896073;29;20044;-71
2021/01/11 08:57:38;;;;;;;27.80;16.10;;;4.90;72.90;;;;;;4916272;29;20048;-73
2021/01/11 09:00:11;;;;;;;26.33;16.17;;;4.90;72.90;;;;;;4917811;29;20048;-72
2021/01/11 09:02:45;;;;;;;26.77;15.32;;;5.00;73.00;;;;;;4917675;29;20048;-72
2021/01/11 09:05:16;;;;;;;21.90;12.23;;;5.10;73.00;;;;;;4916916;29;20043;-73
2021/01/11 09:07:43;;;;;;;25.23;14.65;;;5.00;72.90;;;;;;4917453;29;20047;-73
2021/01/11 09:10:18;;;;;;;24.85;15.43;;;4.90;72.80;;;;;;4916644;29;20048;-73
2021/01/11 09:12:46;;;;;;;28.83;15.48;;;5.30;73.00;;;;;;4916344;29;20044;-73
2021/01/11 09:15:12;;;;;;;26.55;16.13;;;5.20;72.90;;;;;;4917076;29;20039;-72
2021/01/11 09:17:38;;;;;;;27.15;16.02;;;5.30;72.90;;;;;;4916689;29;20531;-73
2021/01/11 09:20:07;;;;;;;25.83;16.02;;;5.30;72.90;;;;;;4916400;29;20072;-73
2021/01/11 09:22:35;;;;;;;28.48;15.75;;;5.20;72.80;;;;;;4917519;29;20036;-73
2021/01/11 09:25:07;;;;;;;27.33;16.02;;;5.30;72.80;;;;;;4917018;29;20055;-73
2021/01/11 09:27:34;;;;;;;30.63;17.98;;;5.30;72.80;;;;;;4917123;29;20039;-73
2021/01/11 09:30:00;;;;;;;26.02;16.70;;;5.60;73.50;;;;;;4916747;29;20044;-73
2021/01/11 09:32:26;;;;;;;26.67;16.40;;;5.40;72.80;;;;;;4917348;29;20123;-73
2021/01/11 09:34:52;;;;;;;29.25;15.63;;;5.50;72.90;;;;;;4917790;29;20043;-73
2021/01/11 09:37:18;;;;;;;25.48;14.95;;;5.70;73.00;;;;;;4920901;29;20158;-73
2021/01/11 09:39:43;;;;;;;27.75;16.98;;;5.50;72.90;;;;;;4921378;29;20040;-73
2021/01/11 09:42:10;;;;;;;25.00;15.98;;;5.40;73.00;;;;;;4920515;29;20048;-73
2021/01/11 09:44:36;;;;;;;26.40;15.77;;;5.80;73.20;;;;;;4921095;29;20036;-73
2021/01/11 09:47:05;;;;;;;25.65;15.13;;;5.60;73.10;;;;;;4920690;29;20044;-73
2021/01/11 09:49:30;;;;;;;24.60;14.90;;;5.70;73.00;;;;;;4920665;29;20056;-73
2021/01/11 09:51:56;;;;;;;26.90;16.02;;;5.90;73.10;;;;;;4920581;29;20052;-73
2021/01/11 09:54:22;;;;;;;27.02;15.07;;;5.80;73.00;;;;;;4920598;29;20040;-73
2021/01/11 09:56:48;;;;;;;28.50;15.27;;;5.80;73.10;;;;;;4920427;29;20104;-73
2021/01/11 09:59:15;;;;;;;24.95;14.82;;;5.90;73.10;;;;;;4920845;29;20080;-73
2021/01/11 10:01:43;;;;;;;25.50;14.82;;;6.00;73.10;;;;;;4920263;29;20058;-72
2021/01/11 10:04:11;;;;;;;25.10;15.30;;;5.80;72.90;;;;;;4920790;29;20036;-72
2021/01/11 10:06:45;;;;;;;26.77;15.23;;;6.00;73.10;;;;;;4920858;29;20424;-73
2021/01/11 10:09:16;;;;;;;25.65;14.65;;;5.90;73.00;;;;;;4919858;29;20108;-73
2021/01/11 10:11:44;;;;;;;27.77;15.65;;;6.20;73.00;;;;;;4920882;29;20119;-73
2021/01/11 10:14:10;;;;;;;23.75;15.18;;;6.10;72.90;;;;;;4921133;29;20036;-73
2021/01/11 10:16:40;;;;;;;26.85;15.45;;;6.00;72.80;;;;;;4920739;29;20100;-73
2021/01/11 10:19:07;;;;;;;27.10;15.07;;;6.00;72.90;;;;;;4920677;29;20074;-73
2021/01/11 10:21:33;;;;;;;24.83;15.23;;;6.40;73.10;;;;;;4920788;29;20048;-73
2021/01/11 10:23:58;;;;;;;26.33;14.85;;;6.20;72.90;;;;;;4903524;29;20473;-73
2021/01/11 10:26:24;;;;;;;23.58;14.80;;;6.50;73.20;;;;;;4920839;29;20074;-73
2021/01/11 10:28:50;;;;;;;21.58;13.48;;;6.40;73.10;;;;;;4920482;29;20428;-73
2021/01/11 10:31:17;;;;;;;26.23;14.40;;;6.40;72.90;;;;;;4920901;29;20067;-73
2021/01/11 10:33:47;;;;;;;20.55;13.60;;;6.40;72.90;;;;;;4908995;29;20047;-73
2021/01/11 10:36:13;;;;;;;22.35;13.95;;;6.50;72.90;;;;;;4901416;29;20051;-73
2021/01/11 10:38:40;;;;;;;24.33;15.00;;;6.70;72.90;;;;;;4901366;29;20045;-73
2021/01/11 10:41:06;;;;;;;26.02;15.23;;;6.70;72.80;;;;;;4901458;29;20037;-73
2021/01/11 10:43:33;;;;;;;24.55;14.05;;;6.80;72.90;;;;;;4901632;29;20489;-73
2021/01/11 10:46:00;;;;;;;25.10;14.25;;;6.50;72.70;;;;;;4900921;29;20040;-73
2021/01/11 10:48:27;;;;;;;23.35;14.10;;;6.60;72.70;;;;;;4901288;29;20071;-73
2021/01/11 10:50:53;;;;;;;23.35;14.40;;;6.80;72.70;;;;;;4900770;29;20069;-73
2021/01/11 10:53:18;;;;;;;23.25;13.75;;;7.00;72.90;;;;;;4900869;29;20048;-71
2021/01/11 10:55:45;;;;;;;25.33;14.88;;;6.80;72.70;;;;;;4901216;29;20032;-73
2021/01/11 10:58:11;;;;;;;23.05;14.05;;;6.80;72.80;;;;;;4901143;29;20547;-73
2021/01/11 11:00:36;;;;;;;22.35;14.13;;;6.80;72.70;;;;;;4900842;29;20070;-73
2021/01/11 11:03:08;;;;;;;28.45;17.00;;;6.70;72.50;;;;;;4900616;29;20493;-73
2021/01/11 11:05:34;;;;;;;33.40;20.30;;;6.70;72.40;;;;;;4900810;29;20067;-73
2021/01/11 11:08:00;;;;;;;33.67;21.30;;;6.90;72.50;;;;;;4900667;29;20052;-73
2021/01/11 11:10:25;;;;;;;30.55;20.38;;;7.00;72.60;;;;;;4900609;29;20527;-73
2021/01/11 11:12:52;;;;;;;29.02;19.83;;;7.20;72.60;;;;;;4900555;29;20041;-73
2021/01/11 11:15:18;;;;;;;27.50;19.98;;;7.00;72.50;;;;;;4900461;29;20438;-73
2021/01/11 11:17:43;;;;;;;26.52;17.27;;;7.10;72.50;;;;;;4900172;29;20049;-73
2021/01/11 11:20:09;;;;;;;23.85;15.35;;;7.30;72.50;;;;;;4900658;29;20044;-73
2021/01/11 11:22:36;;;;;;;23.50;15.77;;;7.30;72.50;;;;;;4900685;29;20044;-73
2021/01/11 11:25:05;;;;;;;22.83;14.75;;;7.30;72.40;;;;;;4899478;29;20044;-73
2021/01/11 11:27:35;;;;;;;22.73;15.05;;;7.70;72.60;;;;;;4900436;29;20556;-73
2021/01/11 11:30:06;;;;;;;22.33;14.77;;;7.40;72.40;;;;;;4899210;29;20568;-73
2021/01/11 11:32:34;;;;;;;23.83;15.25;;;7.50;72.40;;;;;;4900126;29;20044;-72
2021/01/11 11:35:06;;;;;;;25.52;16.38;;;7.50;72.30;;;;;;4900626;29;20041;-72
2021/01/11 11:37:33;;;;;;;27.75;17.15;;;7.70;72.20;;;;;;4900109;29;20048;-73
2021/01/11 11:39:59;;;;;;;29.90;18.15;;;7.50;72.00;;;;;;4900750;29;20048;-73
2021/01/11 11:42:25;;;;;;;33.30;19.08;;;7.70;72.20;;;;;;4904450;29;20076;-73
2021/01/11 11:44:51;;;;;;;25.00;16.75;;;8.10;72.40;;;;;;4916605;29;20056;-73
2021/01/11 11:47:17;;;;;;;28.00;16.92;;;8.20;72.30;;;;;;4914513;29;20040;-73
2021/01/11 11:49:43;;;;;;;24.33;16.63;;;8.40;72.30;;;;;;4917363;29;20052;-74
2021/01/11 11:52:08;;;;;;;24.45;17.08;;;8.70;72.40;;;;;;4917620;29;20543;-74
2021/01/11 11:54:34;;;;;;;27.65;16.23;;;8.50;72.20;;;;;;4918469;29;20046;-74
2021/01/11 11:57:02;;;;;;;26.25;17.45;;;8.70;72.00;;;;;;4916656;29;20055;-75
2021/01/11 11:59:28;;;;;;;25.42;17.02;;;8.80;71.90;;;;;;4918460;29;20400;-75
2021/01/11 12:01:54;;;;;;;29.65;17.13;;;8.70;71.70;;;;;;4918879;29;20044;-74
2021/01/11 12:04:20;;;;;;;23.77;16.27;;;9.00;71.80;;;;;;4918613;29;20044;-75
2021/01/11 12:06:46;;;;;;;25.73;15.95;;;9.00;71.80;;;;;;4918302;29;20508;-75
2021/01/11 12:09:12;;;;;;;19.20;13.63;;;9.10;71.80;;;;;;4918600;29;20425;-74
2021/01/11 12:11:42;;;;;;;25.42;14.40;;;9.40;72.00;;;;;;4918647;29;20052;-74
2021/01/11 12:14:08;;;;;;;24.42;15.50;;;9.30;71.90;;;;;;4918457;29;20036;-74
2021/01/11 12:16:34;;;;;;;19.27;12.93;;;9.60;71.90;;;;;;4918733;29;20046;-74
2021/01/11 12:19:00;;;;;;;19.73;12.85;;;9.60;72.00;;;;;;4918140;29;20131;-74
2021/01/11 12:21:33;;;;;;;15.15;11.25;;;9.70;71.80;;;;;;4918522;29;20551;-74
2021/01/11 12:24:00;;;;;;;15.85;10.93;;;9.80;72.10;;;;;;4918095;29;20036;-74
2021/01/11 12:26:26;;;;;;;13.60;9.52;;;10.10;71.60;;;;;;4917869;29;20036;-75
2021/01/11 12:28:52;;;;;;;13.68;8.90;;;10.20;71.50;;;;;;4918296;29;20139;-75
2021/01/11 12:31:25;;;;;;;15.93;9.80;;;10.30;71.30;;;;;;4918065;29;20140;-74
2021/01/11 12:33:51;;;;;;;16.17;10.07;;;10.40;71.10;;;;;;4917988;29;20047;-74
2021/01/11 12:36:22;;;;;;;11.77;7.60;;;10.40;71.00;;;;;;4917817;29;20048;-74
2021/01/11 12:38:48;;;;;;;13.00;8.27;;;10.40;70.60;;;;;;4918387;29;20079;-75
2021/01/11 12:41:17;;;;;;;11.50;7.53;;;10.60;70.60;;;;;;4918480;29;20052;-74
2021/01/11 12:43:43;;;;;;;8.57;5.70;;;10.70;70.40;;;;;;4918180;29;20068;-75
2021/01/11 12:46:10;;;;;;;13.77;9.05;;;10.80;70.20;;;;;;4917486;29;20143;-75